Terminal Aerodrome Forecast
Issued by NWS Newport/Morehead City, NC

Home | Current Version | Previous Version | Text Only | Print | Product List | Glossary Off
Versions: 1 2 3 4 5 6 7 8 9 10 11 12 13

255
FTUS42 KMHX 061743
TAFEWN
TAF
KEWN 061743Z 0618/0718 03008KT P6SM BKN070
     FM070800 01013G20KT P6SM -RA BKN040
     FM071400 02017G24KT 6SM -RA OVC015=

USA.gov is the U.S. government's official web portal to all federal, state and local government web resources and services.